National Weather Service United States Department of Commerce

 

Aviation Weather Center TAFs Radar Soundings/Model Data Soaring
NWS Wichita Home Page Hazardous Weather Outlook NWS Graphical Forecasts

 

Wichita (ICT)
Hutchinson (HUT)
Tactical Decision Aid
 
Tactical Decision Aid
 

 
000
FTUS43 KICT 220852 AAB
TAFICT
TAF AMD
KICT 220852Z 2209/2306 10013KT P6SM VCTS SCT040 BKN070CB OVC100
TEMPO 2209/2212 5SM TSRA BKN035CB
FM221200 08004KT P6SM VCTS OVC015CB
FM221800 10009KT P6SM OVC022
FM222300 11013KT P6SM VCTS SCT025 OVC080CB=
 
787
FTUS43 KICT 220828 AAA
TAFHUT
TAF AMD
KHUT 220828Z 2208/2306 08007KT 4SM TSRA BKN005 OVC050CB
TEMPO 2208/2211 6SM -TSRA SCT005 OVC050CB
FM221100 08007KT 5SM SHRA VCTS OVC008CB
FM221500 10004KT P6SM VCTS OVC012CB
FM222300 08007KT P6SM VCTS SCT040CB BKN070=
Salina (SLN) Russell (RSL)
Tactical Decision Aid
Tactical Decision Aid

 
000
FTUS43 KICT 220630 AAA
TAFSLN
TAF AMD
KSLN 220630Z 2207/2306 07007KT P6SM OVC007
FM221500 08009KT P6SM OVC012
FM221800 12007KT P6SM OVC017=

 
000
FTUS43 KICT 220919 AAB
TAFRSL
TAF AMD
KRSL 220919Z 2209/2306 07013KT P6SM VCTS OVC005CB
TEMPO 2209/2212 5SM TSRA SCT005 OVC013CB
FM221200 08005KT P6SM OVC005
FM221600 12009KT P6SM SCT010 BKN035=
Chanute (CNU) Great Bend (GBD)
Tactical Decision Aid
Tactical Decision Aid

 
000
FTUS43 KICT 220856 AAA
TAFCNU
TAF AMD
KCNU 220856Z 2209/2306 10005KT P6SM VCTS SCT080CB OVC120
TEMPO 2209/2213 6SM -TSRA BKN080CB
FM221300 11009KT P6SM VCTS SCT030CB BKN050
FM221600 11005KT P6SM SCT030 BKN050
FM222300 08007KT P6SM VCTS SCT050CB BKN120=

 
674
FTUS43 KICT 220910 AAA
TAFGBD
TAF AMD
KGBD 220910Z 2209/2306 06009KT P6SM OVC005
FM221500 10007KT P6SM SCT010 OVC100
FM222000 10013KT P6SM OVC100=
 
NWS Wichita Aviation Forecast Discussion

 

 

IMPORTANT: This page is a tool to help pilots better visualize weather and weather-related hazards, and is not a substitute for a weather briefing obtained from a Flight Service Station (1-800-WXBRIEF). The information contained here does not meet the FAA requirements for a pre-flight weather brief. Therefore, it is important that pilots call and obtain a briefing from an FAA Flight Service Specialist.